createdAt,value
2022-07-27T00:00:59.079Z,100109.91
2022-07-27T00:03:26.234Z,100106.34
2022-07-27T00:05:53.071Z,100108.16
2022-07-27T00:08:20.771Z,100081.66
2022-07-27T00:10:48.023Z,100105.50
2022-07-27T00:13:15.063Z,100104.81
2022-07-27T00:15:42.210Z,100101.16
2022-07-27T00:18:09.748Z,100117.34
2022-07-27T00:20:37.484Z,100096.34
2022-07-27T00:23:04.266Z,100117.16
2022-07-27T00:25:31.359Z,100114.28
2022-07-27T00:27:58.232Z,100117.97
2022-07-27T00:30:26.005Z,100100.06
2022-07-27T00:32:53.445Z,100117.78
2022-07-27T00:35:20.300Z,100119.78
2022-07-27T00:37:47.023Z,100124.75
2022-07-27T00:40:14.674Z,100123.44
2022-07-27T00:42:41.656Z,100116.03
2022-07-27T00:45:09.066Z,100097.84
2022-07-27T00:47:36.121Z,100118.03
2022-07-27T00:50:03.369Z,100121.81
2022-07-27T00:52:30.987Z,100121.78
2022-07-27T00:54:59.308Z,100106.31
2022-07-27T00:57:28.000Z,100127.81
2022-07-27T00:59:54.917Z,100130.38
2022-07-27T01:02:22.927Z,100104.91
2022-07-27T01:04:53.646Z,100101.44
2022-07-27T01:07:25.979Z,100104.75
2022-07-27T01:09:58.877Z,100126.47
2022-07-27T01:12:32.304Z,100118.78
2022-07-27T01:15:01.110Z,100130.25
2022-07-27T01:17:31.491Z,100123.34
2022-07-27T01:19:59.169Z,100130.53
2022-07-27T01:22:27.000Z,100116.91
2022-07-27T01:24:54.316Z,100132.13
2022-07-27T01:27:21.264Z,100118.28
2022-07-27T01:29:48.839Z,100121.81
2022-07-27T01:32:16.130Z,100131.47
2022-07-27T01:34:43.021Z,100121.16
2022-07-27T01:37:09.912Z,100128.34
2022-07-27T01:39:36.990Z,100123.75
2022-07-27T01:42:04.131Z,100124.56
2022-07-27T01:44:31.810Z,100132.19
2022-07-27T01:46:58.562Z,100133.50
2022-07-27T01:49:25.567Z,100131.81
2022-07-27T01:51:52.522Z,100133.72
2022-07-27T01:54:19.361Z,100126.56
2022-07-27T01:56:46.118Z,100138.94
2022-07-27T01:59:16.110Z,100131.31
2022-07-27T02:01:43.552Z,100125.56
2022-07-27T02:04:10.540Z,100129.41
2022-07-27T02:06:37.585Z,100144.53
2022-07-27T02:09:04.432Z,100135.28
2022-07-27T02:11:49.766Z,100139.19
2022-07-27T02:14:16.931Z,100141.66
2022-07-27T02:16:43.801Z,100124.00
2022-07-27T02:19:11.251Z,100126.38
2022-07-27T02:21:39.062Z,100152.72
2022-07-27T02:24:06.465Z,100144.00
2022-07-27T02:26:33.333Z,100154.09
2022-07-27T02:29:00.507Z,100141.56
2022-07-27T02:31:32.690Z,100155.56
2022-07-27T02:34:00.752Z,100156.81
2022-07-27T02:36:30.927Z,100151.09
2022-07-27T02:38:58.342Z,100147.09
2022-07-27T02:41:25.199Z,100144.81
2022-07-27T02:43:52.281Z,100145.03
2022-07-27T02:46:19.730Z,100152.16
2022-07-27T02:48:47.010Z,100151.78
2022-07-27T02:51:15.357Z,100155.97
2022-07-27T02:53:42.240Z,100134.41
2022-07-27T02:56:09.422Z,100157.56
2022-07-27T02:58:36.935Z,100158.63
2022-07-27T03:01:05.255Z,100168.66
2022-07-27T03:03:35.897Z,100164.53
2022-07-27T03:06:05.929Z,100165.50
2022-07-27T03:08:32.896Z,100172.34
2022-07-27T03:10:59.671Z,100170.06
2022-07-27T03:13:26.837Z,100165.22
2022-07-27T03:15:53.628Z,100163.19
2022-07-27T03:18:21.171Z,100177.28
2022-07-27T03:20:48.230Z,100171.25
2022-07-27T03:23:15.338Z,100183.69
2022-07-27T03:25:42.104Z,100166.28
2022-07-27T03:28:10.008Z,100168.31
2022-07-27T03:30:37.028Z,100191.09
2022-07-27T03:33:04.326Z,100188.72
2022-07-27T03:35:31.306Z,100187.03
2022-07-27T03:37:58.781Z,100186.88
2022-07-27T03:40:25.746Z,100204.75
2022-07-27T03:42:52.716Z,100194.19
2022-07-27T03:45:19.504Z,100201.31
2022-07-27T03:47:46.293Z,100185.97
2022-07-27T03:50:13.198Z,100189.81
2022-07-27T03:52:39.965Z,100200.75
2022-07-27T03:55:12.596Z,100200.81
2022-07-27T03:57:40.071Z,100195.50
2022-07-27T04:00:08.728Z,100189.75
2022-07-27T04:02:35.460Z,100189.84
2022-07-27T04:05:02.629Z,100193.09
2022-07-27T04:07:29.383Z,100190.06
2022-07-27T04:09:56.389Z,100184.72
2022-07-27T04:12:24.146Z,100173.34
2022-07-27T04:14:51.804Z,100182.53
2022-07-27T04:17:56.119Z,100180.78
2022-07-27T04:20:06.896Z,100186.13
2022-07-27T04:22:33.697Z,100200.94
2022-07-27T04:25:00.718Z,100197.25
2022-07-27T04:27:27.792Z,100196.25
2022-07-27T04:29:54.625Z,100200.84
2022-07-27T04:32:21.438Z,100152.53
2022-07-27T04:34:48.695Z,100194.25
2022-07-27T04:37:15.657Z,100200.88
2022-07-27T04:39:42.529Z,100200.75
2022-07-27T04:42:09.675Z,100210.84
2022-07-27T04:44:36.391Z,100221.09
2022-07-27T04:47:03.209Z,100223.28
2022-07-27T04:49:30.301Z,100199.53
2022-07-27T04:51:57.084Z,100221.53
2022-07-27T04:54:23.991Z,100215.66
2022-07-27T04:56:51.734Z,100224.72
2022-07-27T04:59:18.619Z,100233.84
2022-07-27T05:01:45.463Z,100240.00
2022-07-27T05:04:12.552Z,100238.22
2022-07-27T05:06:39.492Z,100223.28
2022-07-27T05:09:06.450Z,100234.56
2022-07-27T05:11:33.954Z,100246.53
2022-07-27T05:14:00.826Z,100242.78
2022-07-27T05:16:29.090Z,100250.00
2022-07-27T05:18:57.333Z,100248.09
2022-07-27T05:21:25.116Z,100263.06
2022-07-27T05:23:52.058Z,100261.31
2022-07-27T05:26:19.088Z,100266.75
2022-07-27T05:28:45.879Z,100259.06
2022-07-27T05:31:12.639Z,100265.31
2022-07-27T05:33:39.592Z,100261.75
2022-07-27T05:36:07.830Z,100265.16
2022-07-27T05:38:39.426Z,100261.56
2022-07-27T05:41:07.972Z,100231.00
2022-07-27T05:43:40.393Z,100240.13
2022-07-27T05:46:07.534Z,100162.16
2022-07-27T05:48:34.379Z,100251.41
2022-07-27T05:51:01.060Z,100250.13
2022-07-27T05:53:28.090Z,100255.44
2022-07-27T05:55:58.676Z,100269.63
2022-07-27T05:58:27.926Z,100254.78
2022-07-27T06:00:56.512Z,100253.22
2022-07-27T06:03:23.725Z,100252.28
2022-07-27T06:05:50.577Z,100259.84
2022-07-27T06:08:17.495Z,100243.78
2022-07-27T06:10:44.460Z,100262.44
2022-07-27T06:13:14.302Z,100231.63
2022-07-27T06:15:41.361Z,100276.94
2022-07-27T06:18:14.903Z,100253.78
2022-07-27T06:20:43.213Z,100277.00
2022-07-27T06:23:10.983Z,100258.38
2022-07-27T06:25:37.756Z,100271.84
2022-07-27T06:28:06.049Z,100235.47
2022-07-27T06:30:33.461Z,100256.59
2022-07-27T06:33:01.167Z,100261.09
2022-07-27T06:35:28.140Z,100260.31
2022-07-27T06:37:54.881Z,100275.88
2022-07-27T06:40:22.027Z,100257.31
2022-07-27T06:42:49.044Z,100271.38
2022-07-27T06:45:16.589Z,100287.06
2022-07-27T06:47:49.901Z,100272.22
2022-07-27T06:50:18.501Z,100252.16
2022-07-27T06:52:45.325Z,100261.03
2022-07-27T06:55:13.885Z,100256.44
2022-07-27T06:57:42.153Z,100276.72
2022-07-27T07:00:09.831Z,100245.31
2022-07-27T07:02:36.580Z,100208.25
2022-07-27T07:05:04.187Z,100269.38
2022-07-27T07:07:31.708Z,100247.38
2022-07-27T07:09:59.166Z,100266.53
2022-07-27T07:12:28.391Z,100229.78
2022-07-27T07:14:55.197Z,100246.53
2022-07-27T07:17:21.921Z,100240.63
2022-07-27T07:19:48.759Z,100238.28
2022-07-27T07:22:15.566Z,100202.25
2022-07-27T07:24:42.501Z,100217.09
2022-07-27T07:27:09.385Z,100235.09
2022-07-27T07:29:36.141Z,100234.00
2022-07-27T07:32:02.875Z,100237.75
2022-07-27T07:34:30.933Z,100229.03
2022-07-27T07:36:58.206Z,100187.84
2022-07-27T07:39:30.857Z,100163.84
2022-07-27T07:41:58.759Z,100167.16
2022-07-27T07:44:27.109Z,100250.63
2022-07-27T07:46:56.055Z,100184.13
2022-07-27T07:49:37.807Z,100152.22
2022-07-27T07:52:08.057Z,100194.56
2022-07-27T07:54:36.727Z,100263.56
2022-07-27T07:59:47.377Z,100196.91
2022-07-27T08:02:14.919Z,100210.00
2022-07-27T08:04:43.857Z,100250.38
2022-07-27T08:07:10.907Z,100186.50
2022-07-27T08:09:39.192Z,100244.84
2022-07-27T08:12:06.529Z,100225.53
2022-07-27T08:14:34.989Z,100249.38
2022-07-27T08:17:02.056Z,100205.56
2022-07-27T08:19:28.876Z,100260.41
2022-07-27T08:21:55.832Z,100260.16
2022-07-27T08:24:22.547Z,100259.00
2022-07-27T08:26:49.287Z,100256.56
2022-07-27T08:29:17.282Z,100267.47
2022-07-27T08:31:51.204Z,100238.50
2022-07-27T08:34:18.956Z,100278.88
2022-07-27T08:36:45.682Z,100185.47
2022-07-27T08:39:41.251Z,100204.94
2022-07-27T08:42:05.830Z,100280.97
2022-07-27T08:44:33.674Z,100275.91
2022-07-27T08:47:04.270Z,100281.66
2022-07-27T08:49:43.197Z,100272.06
2022-07-27T08:52:11.751Z,100285.19
2022-07-27T08:54:40.287Z,100278.50
2022-07-27T08:57:11.248Z,100289.97
2022-07-27T08:59:41.975Z,100266.41
2022-07-27T09:02:13.339Z,100256.66
2022-07-27T09:04:41.243Z,100207.31
2022-07-27T09:07:08.118Z,100264.25
2022-07-27T09:09:46.572Z,100287.44
2022-07-27T09:12:13.572Z,100269.16
2022-07-27T09:14:41.610Z,100281.44
2022-07-27T09:20:19.346Z,100281.63
2022-07-27T09:22:56.250Z,100279.06
2022-07-27T09:26:00.246Z,100284.31
2022-07-27T09:28:13.543Z,100265.13
2022-07-27T09:30:44.083Z,100273.34
2022-07-27T09:33:11.040Z,100250.78
2022-07-27T09:35:38.012Z,100280.69
2022-07-27T09:38:22.051Z,100299.31
2022-07-27T09:41:02.402Z,100287.84
2022-07-27T09:46:32.836Z,100262.81
2022-07-27T09:49:00.776Z,100253.66
2022-07-27T09:54:17.106Z,100254.63
2022-07-27T09:56:44.884Z,100179.72
2022-07-27T09:59:18.459Z,100217.59
2022-07-27T10:01:49.927Z,100171.47
2022-07-27T10:04:21.929Z,100145.28
2022-07-27T10:07:02.380Z,100241.81
2022-07-27T10:09:37.310Z,100196.56
2022-07-27T10:12:19.856Z,100166.00
2022-07-27T10:14:50.895Z,100124.09
2022-07-27T10:17:24.533Z,100166.38
2022-07-27T10:19:51.703Z,100106.03
2022-07-27T10:22:51.927Z,100231.69
2022-07-27T10:25:19.662Z,100202.34
2022-07-27T10:27:48.705Z,100176.56
2022-07-27T10:30:24.000Z,100204.56
2022-07-27T10:32:54.708Z,100187.88
2022-07-27T10:35:40.114Z,100152.72
2022-07-27T10:38:13.040Z,100207.59
2022-07-27T10:40:40.130Z,100154.69
2022-07-27T10:43:20.051Z,100210.31
2022-07-27T10:46:00.982Z,100135.72
2022-07-27T10:48:47.857Z,100135.44
2022-07-27T10:51:17.131Z,100188.72
2022-07-27T10:56:46.938Z,100140.28
2022-07-27T10:59:14.161Z,100167.09
2022-07-27T11:01:57.877Z,100187.69
2022-07-27T11:04:24.989Z,100180.00
2022-07-27T11:10:07.638Z,100195.09
2022-07-27T11:12:36.761Z,100166.81
2022-07-27T11:15:04.664Z,100166.81
2022-07-27T11:20:23.706Z,100160.53
2022-07-27T11:25:38.128Z,100166.84
2022-07-27T11:28:09.236Z,100127.94
2022-07-27T11:30:36.618Z,100163.81
2022-07-27T11:33:05.287Z,100182.44
2022-07-27T11:35:32.512Z,100145.97
2022-07-27T11:38:05.793Z,100142.16
2022-07-27T11:40:56.970Z,100177.19
2022-07-27T11:43:45.856Z,100190.09
2022-07-27T11:46:24.767Z,100168.69
2022-07-27T11:49:07.894Z,100173.91
2022-07-27T11:51:41.578Z,100167.31
2022-07-27T11:54:10.796Z,100162.31
2022-07-27T11:56:43.270Z,100179.59
2022-07-27T11:59:16.435Z,100160.41
2022-07-27T12:01:50.495Z,100155.19
2022-07-27T12:04:30.573Z,100158.44
2022-07-27T12:07:03.301Z,100161.41
2022-07-27T12:09:38.116Z,100157.19
2022-07-27T12:12:16.902Z,100149.19
2022-07-27T12:14:51.292Z,100156.66
2022-07-27T12:17:20.968Z,100159.06
2022-07-27T12:19:53.091Z,100149.09
2022-07-27T12:22:30.563Z,100145.50
2022-07-27T12:24:59.209Z,100136.19
2022-07-27T12:27:27.415Z,100147.59
2022-07-27T12:30:00.234Z,100131.88
2022-07-27T12:32:30.092Z,100145.34
2022-07-27T12:34:57.554Z,100140.47
2022-07-27T12:37:30.018Z,100145.19
2022-07-27T12:39:57.634Z,100103.81
2022-07-27T12:42:36.353Z,100083.84
2022-07-27T12:45:16.663Z,100054.75
2022-07-27T12:47:43.988Z,99982.25
2022-07-27T12:50:14.907Z,100068.78
2022-07-27T12:52:52.004Z,100105.34
2022-07-27T12:55:24.309Z,100107.56
2022-07-27T12:57:56.157Z,100115.34
2022-07-27T13:00:29.386Z,100085.09
2022-07-27T13:03:00.703Z,100100.38
2022-07-27T13:05:27.885Z,100073.50
2022-07-27T13:07:55.748Z,100050.09
2022-07-27T13:10:22.604Z,100069.53
2022-07-27T13:12:49.993Z,100021.91
2022-07-27T13:15:18.254Z,100044.97
2022-07-27T13:17:46.604Z,100098.06
2022-07-27T13:20:14.993Z,100002.59
2022-07-27T13:22:42.498Z,100015.06
2022-07-27T13:25:16.410Z,100005.31
2022-07-27T13:27:46.021Z,100017.91
2022-07-27T13:30:14.718Z,100038.44
2022-07-27T13:32:42.966Z,100009.34
2022-07-27T13:35:12.444Z,100022.06
2022-07-27T13:37:40.873Z,99997.13
2022-07-27T13:40:09.913Z,99967.97
2022-07-27T13:42:37.596Z,100018.78
2022-07-27T13:45:11.293Z,100011.81
2022-07-27T13:47:41.027Z,99973.34
2022-07-27T13:50:13.670Z,100067.53
2022-07-27T13:52:46.452Z,100058.44
2022-07-27T13:55:17.926Z,99979.50
2022-07-27T13:57:46.150Z,100005.72
2022-07-27T14:00:14.110Z,100013.66
2022-07-27T14:02:41.996Z,100002.97
2022-07-27T14:05:10.012Z,100042.78
2022-07-27T14:07:40.450Z,99972.34
2022-07-27T14:10:26.512Z,99949.25
2022-07-27T14:12:58.815Z,100014.75
2022-07-27T14:15:26.724Z,100006.50
2022-07-27T14:17:53.758Z,99992.88
2022-07-27T14:20:20.758Z,100029.34
2022-07-27T14:22:47.714Z,100032.78
2022-07-27T14:25:14.908Z,100034.13
2022-07-27T14:27:42.574Z,100007.75
2022-07-27T14:30:10.173Z,100018.88
2022-07-27T14:32:37.026Z,100013.00
2022-07-27T14:35:05.062Z,100014.72
2022-07-27T14:37:34.299Z,100005.56
2022-07-27T14:40:01.832Z,100004.41
2022-07-27T14:42:29.685Z,100025.53
2022-07-27T14:44:57.187Z,99957.31
2022-07-27T14:47:24.235Z,99902.22
2022-07-27T14:49:51.691Z,100009.50
2022-07-27T14:52:19.262Z,99860.53
2022-07-27T14:54:47.816Z,100018.41
2022-07-27T14:57:16.631Z,99980.81
2022-07-27T14:59:44.962Z,100009.22
2022-07-27T15:02:14.492Z,99926.13
2022-07-27T15:04:52.710Z,100005.94
2022-07-27T15:07:22.327Z,99905.06
2022-07-27T15:09:49.726Z,99928.69
2022-07-27T15:12:17.452Z,99852.41
2022-07-27T15:15:44.469Z,99993.13
2022-07-27T15:21:58.975Z,99845.88
2022-07-27T15:24:26.291Z,99875.34
2022-07-27T15:26:55.010Z,99914.41
2022-07-27T15:32:39.425Z,99888.41
2022-07-27T15:35:06.865Z,100007.25
2022-07-27T15:37:34.020Z,99943.72
2022-07-27T15:40:20.950Z,99841.16
2022-07-27T15:42:48.201Z,99871.72
2022-07-27T15:45:38.978Z,99984.44
2022-07-27T15:48:08.406Z,99952.94
2022-07-27T15:50:37.938Z,99949.88
2022-07-27T15:53:05.687Z,99937.25
2022-07-27T15:55:33.977Z,99984.81
2022-07-27T15:58:00.790Z,99976.09
2022-07-27T16:00:27.645Z,99973.72
2022-07-27T16:02:56.838Z,99967.22
2022-07-27T16:05:24.016Z,99987.41
2022-07-27T16:07:51.865Z,99998.97
2022-07-27T16:10:18.740Z,99995.97
2022-07-27T16:12:45.702Z,100008.97
2022-07-27T16:15:17.928Z,99999.75
2022-07-27T16:17:44.928Z,99999.44
2022-07-27T16:20:13.461Z,100001.81
2022-07-27T16:22:49.511Z,99971.81
2022-07-27T16:25:16.597Z,99954.22
2022-07-27T16:27:44.554Z,99998.41
2022-07-27T16:30:20.442Z,99950.91
2022-07-27T16:32:48.189Z,99999.94
2022-07-27T16:35:15.039Z,100004.94
2022-07-27T16:37:41.785Z,100008.31
2022-07-27T16:40:09.420Z,100013.19
2022-07-27T16:42:38.033Z,99987.19
2022-07-27T16:45:05.828Z,100015.38
2022-07-27T16:47:32.876Z,100004.13
2022-07-27T16:49:59.678Z,99989.94
2022-07-27T16:52:26.464Z,100025.28
2022-07-27T16:54:53.554Z,100017.66
2022-07-27T16:57:20.289Z,100032.75
2022-07-27T16:59:47.166Z,99995.72
2022-07-27T17:02:42.865Z,100016.97
2022-07-27T17:05:20.853Z,99886.34
2022-07-27T17:07:51.155Z,99865.88
2022-07-27T17:10:26.804Z,99929.06
2022-07-27T17:12:55.708Z,100024.72
2022-07-27T17:15:25.202Z,100037.31
2022-07-27T17:17:52.019Z,100029.34
2022-07-27T17:20:32.961Z,99996.88
2022-07-27T17:23:05.792Z,100021.31
2022-07-27T17:25:32.730Z,100042.31
2022-07-27T17:27:59.697Z,100031.09
2022-07-27T17:30:26.529Z,100019.94
2022-07-27T17:32:54.128Z,100056.19
2022-07-27T17:35:21.011Z,100049.38
2022-07-27T17:38:05.456Z,100034.38
2022-07-27T17:40:32.889Z,100044.56
2022-07-27T17:42:59.592Z,100053.03
2022-07-27T17:45:26.547Z,100041.56
2022-07-27T17:58:10.149Z,100038.09
2022-07-27T18:00:37.286Z,100044.69
2022-07-27T18:03:05.368Z,100019.22
2022-07-27T18:05:32.649Z,100051.53
2022-07-27T18:07:59.810Z,100052.91
2022-07-27T18:10:26.570Z,100028.50
2022-07-27T18:12:53.307Z,100018.09
2022-07-27T18:15:39.439Z,100049.03
2022-07-27T18:18:06.206Z,100031.22
2022-07-27T18:20:33.278Z,100056.66
2022-07-27T18:23:00.116Z,100057.78
2022-07-27T18:25:27.645Z,100042.41
2022-07-27T18:27:55.046Z,100060.47
2022-07-27T18:30:22.094Z,100036.22
2022-07-27T18:32:51.042Z,99914.84
2022-07-27T18:35:18.976Z,100027.19
2022-07-27T18:37:50.899Z,99982.44
2022-07-27T18:40:18.460Z,100014.44
2022-07-27T18:42:46.988Z,100074.97
2022-07-27T18:45:13.808Z,99967.47
2022-07-27T18:47:40.585Z,99960.84
2022-07-27T18:50:17.101Z,100027.97
2022-07-27T18:52:44.223Z,100082.47
2022-07-27T18:58:54.956Z,100088.09
2022-07-27T19:01:22.222Z,100061.69
2022-07-27T19:03:50.478Z,100025.41
2022-07-27T19:06:18.129Z,99983.69
2022-07-27T19:08:45.611Z,99987.97
2022-07-27T19:11:12.428Z,100027.31
2022-07-27T19:13:40.228Z,99914.00
2022-07-27T19:16:07.457Z,99974.16
2022-07-27T19:18:34.311Z,99956.72
2022-07-27T19:21:01.379Z,100085.19
2022-07-27T19:23:28.428Z,100024.41
2022-07-27T19:26:00.390Z,100062.53
2022-07-27T19:28:27.804Z,100096.16
2022-07-27T19:30:54.684Z,100096.88
2022-07-27T19:33:21.558Z,100088.06
2022-07-27T19:35:50.648Z,100098.91
2022-07-27T19:38:17.484Z,100102.16
2022-07-27T19:40:46.038Z,100097.72
2022-07-27T19:43:17.501Z,100102.59
2022-07-27T19:45:44.416Z,100096.78
2022-07-27T19:48:11.861Z,100105.47
2022-07-27T19:50:39.297Z,100113.94
2022-07-27T19:53:06.151Z,100075.16
2022-07-27T19:55:33.212Z,100113.06
2022-07-27T19:58:00.991Z,100091.28
2022-07-27T20:00:28.125Z,100100.84
2022-07-27T20:02:54.984Z,100115.34
2022-07-27T20:05:22.243Z,100116.19
2022-07-27T20:07:48.981Z,100118.84
2022-07-27T20:10:16.254Z,100095.19
2022-07-27T20:12:43.222Z,100112.88
2022-07-27T20:15:10.493Z,100120.34
2022-07-27T20:17:37.739Z,100113.97
2022-07-27T20:20:09.355Z,100099.47
2022-07-27T20:22:36.845Z,100106.56
2022-07-27T20:25:03.973Z,100082.09
2022-07-27T20:27:30.968Z,100109.84
2022-07-27T20:29:58.191Z,100077.97
2022-07-27T20:32:25.132Z,100107.69
2022-07-27T20:34:52.390Z,100122.78
2022-07-27T20:37:19.203Z,100088.47
2022-07-27T20:39:45.992Z,100115.00
2022-07-27T20:42:13.366Z,100102.25
2022-07-27T20:44:40.115Z,100120.56
2022-07-27T20:47:08.173Z,100101.03
2022-07-27T20:49:35.318Z,100114.72
2022-07-27T20:52:02.206Z,100106.97
2022-07-27T20:54:29.814Z,100115.16
2022-07-27T20:56:58.097Z,100113.94
2022-07-27T20:59:24.977Z,100115.53
2022-07-27T21:01:52.772Z,100097.25
2022-07-27T21:04:24.957Z,100123.19
2022-07-27T21:06:52.158Z,100120.97
2022-07-27T21:09:18.968Z,100117.75
2022-07-27T21:11:46.321Z,100128.78
2022-07-27T21:14:13.125Z,100127.72
2022-07-27T21:16:40.381Z,100128.47
2022-07-27T21:19:07.717Z,100125.06
2022-07-27T21:21:34.657Z,100135.69
2022-07-27T21:24:18.545Z,100122.13
2022-07-27T21:26:48.850Z,100138.81
2022-07-27T21:29:16.335Z,100123.00
2022-07-27T21:31:48.187Z,100138.09
2022-07-27T21:34:19.863Z,100141.66
2022-07-27T21:36:48.046Z,100147.56
2022-07-27T21:39:15.208Z,100151.59
2022-07-27T21:41:42.361Z,100146.31
2022-07-27T21:44:09.491Z,100158.09
2022-07-27T21:46:36.500Z,100155.63
2022-07-27T21:49:03.991Z,100145.03
2022-07-27T21:51:30.986Z,100155.84
2022-07-27T21:53:57.815Z,100156.44
2022-07-27T21:56:24.863Z,100150.44
2022-07-27T21:58:51.836Z,100164.16
2022-07-27T22:01:19.056Z,100160.97
2022-07-27T22:03:46.394Z,100160.28
2022-07-27T22:06:13.860Z,100163.34
2022-07-27T22:08:40.751Z,100168.78
2022-07-27T22:11:07.870Z,100171.72
2022-07-27T22:13:36.094Z,100144.81
2022-07-27T22:16:03.270Z,100059.31
2022-07-27T22:18:31.573Z,100158.94
2022-07-27T22:20:58.713Z,100078.22
2022-07-27T22:23:26.052Z,100059.81
2022-07-27T22:25:53.283Z,100142.75
2022-07-27T22:28:20.540Z,100091.13
2022-07-27T22:31:20.444Z,100124.91
2022-07-27T22:33:39.975Z,100118.28
2022-07-27T22:36:11.988Z,100092.38
2022-07-27T22:38:39.358Z,100066.03
2022-07-27T22:41:08.702Z,100147.75
2022-07-27T22:43:35.854Z,100064.47
2022-07-27T22:46:06.888Z,100095.06
2022-07-27T22:48:33.959Z,100118.41
2022-07-27T22:51:00.865Z,100035.47
2022-07-27T22:53:28.376Z,100065.94
2022-07-27T22:55:56.431Z,100056.44
2022-07-27T22:58:23.306Z,100058.19
2022-07-27T23:00:53.456Z,100155.56
2022-07-27T23:03:23.278Z,100088.56
2022-07-27T23:05:50.154Z,100060.44
2022-07-27T23:08:17.107Z,100146.53
2022-07-27T23:10:48.331Z,100098.31
2022-07-27T23:13:17.350Z,100102.19
2022-07-27T23:15:45.858Z,100133.50
2022-07-27T23:18:16.665Z,100083.16
2022-07-27T23:20:44.069Z,100025.13
2022-07-27T23:23:16.769Z,100136.22
2022-07-27T23:25:48.011Z,100138.75
2022-07-27T23:28:16.492Z,100137.31
2022-07-27T23:30:43.855Z,100144.00
2022-07-27T23:33:11.209Z,100135.66
2022-07-27T23:35:38.226Z,100139.47
2022-07-27T23:38:05.073Z,100111.81
2022-07-27T23:40:31.777Z,100143.72
2022-07-27T23:42:59.637Z,100122.78
2022-07-27T23:45:27.111Z,100115.19
2022-07-27T23:47:54.520Z,100122.25
2022-07-27T23:50:22.524Z,100164.75
2022-07-27T23:52:52.020Z,100150.25
2022-07-27T23:55:19.284Z,100098.78
2022-07-27T23:57:47.353Z,100157.44
